Time;durP1;ratioP1;P1;durP2;ratioP2;P2;SDS_P1;SDS_P2;PMS_P1;PMS_P2;Temp;Humidity;BMP_temperature;BMP_pressure;BME280_temperature;BME280_humidity;BME280_pressure;Samples;Min_cycle;Max_cycle;Signal;HPM_P1;HPM_P2
2024/04/15 00:01:37;;;;;;;2.78;1.05;;;;;;;13.31;100.00;97526.28;5403835;26;20000;-79
2024/04/15 00:04:05;;;;;;;3.63;1.25;;;;;;;13.46;100.00;97531.91;5397365;26;19996;-80
2024/04/15 00:06:31;;;;;;;3.25;1.27;;;;;;;13.53;100.00;97526.69;5399643;26;20079;-79
2024/04/15 00:08:58;;;;;;;5.05;1.35;;;;;;;13.64;100.00;97524.34;5413803;26;20335;-79
2024/04/15 00:11:25;;;;;;;2.45;1.02;;;;;;;13.61;100.00;97522.28;5400050;26;20004;-82
2024/04/15 00:13:53;;;;;;;4.88;1.30;;;;;;;13.47;100.00;97519.09;5416077;26;20003;-79
2024/04/15 00:16:20;;;;;;;4.68;1.30;;;;;;;13.47;100.00;97519.88;5411404;26;20081;-82
2024/04/15 00:18:47;;;;;;;4.10;1.45;;;;;;;13.48;100.00;97507.88;5416323;26;20007;-80
2024/04/15 00:21:14;;;;;;;7.47;1.10;;;;;;;13.24;100.00;97499.63;5379525;26;20000;-81
2024/04/15 00:23:41;;;;;;;4.28;1.30;;;;;;;13.33;100.00;97489.47;5417246;26;20011;-81
2024/04/15 00:26:09;;;;;;;5.50;1.27;;;;;;;13.53;100.00;97490.53;5414720;26;20000;-78
2024/04/15 00:28:38;;;;;;;4.60;1.40;;;;;;;13.53;100.00;97487.81;5416409;26;20016;-81
2024/04/15 00:31:06;;;;;;;6.55;1.67;;;;;;;13.61;100.00;97487.72;5411924;26;20075;-79
2024/04/15 00:33:33;;;;;;;5.88;1.05;;;;;;;13.54;100.00;97476.63;5416952;26;20004;-82
2024/04/15 00:36:00;;;;;;;8.35;1.38;;;;;;;13.71;100.00;97460.09;5404615;26;20019;-79
2024/04/15 00:38:27;;;;;;;4.38;1.42;;;;;;;13.86;100.00;97453.16;5416234;26;20015;-82
2024/04/15 00:40:54;;;;;;;4.43;1.50;;;;;;;13.80;100.00;97459.97;5402481;26;20011;-80
2024/04/15 00:43:22;;;;;;;4.47;1.42;;;;;;;13.88;100.00;97447.41;5397174;26;20014;-83
2024/04/15 00:45:49;;;;;;;5.32;1.20;;;;;;;13.94;100.00;97451.47;5400615;26;20035;-81
2024/04/15 00:48:17;;;;;;;3.17;1.23;;;;;;;13.79;100.00;97442.06;5399317;26;20023;-80
2024/04/15 00:50:46;;;;;;;4.68;1.23;;;;;;;13.83;100.00;97458.50;5400810;26;20092;-81
2024/04/15 00:53:15;;;;;;;6.60;1.50;;;;;;;13.82;100.00;97454.19;5415293;26;20008;-82
2024/04/15 00:55:46;;;;;;;3.53;1.58;;;;;;;13.86;100.00;97457.84;5417747;26;20003;-81
2024/04/15 00:58:16;;;;;;;3.00;1.20;;;;;;;13.65;100.00;97436.94;5413731;26;20000;-82
2024/04/15 01:00:44;;;;;;;2.80;1.15;;;;;;;13.73;100.00;97446.13;5414955;26;20000;-81
2024/04/15 01:03:14;;;;;;;5.63;1.10;;;;;;;13.79;100.00;97441.25;5370729;26;20325;-81
2024/04/15 01:05:43;;;;;;;4.65;1.75;;;;;;;13.91;100.00;97444.78;5396962;26;20670;-81
2024/04/15 01:08:11;;;;;;;3.80;1.55;;;;;;;13.83;100.00;97423.13;5416524;26;20087;-80
2024/04/15 01:10:39;;;;;;;5.30;1.15;;;;;;;13.83;100.00;97447.63;5413766;26;20007;-81
2024/04/15 01:13:25;;;;;;;4.10;1.60;;;;;;;13.86;100.00;97449.66;5396843;26;20019;-82
2024/04/15 01:15:59;;;;;;;3.33;1.20;;;;;;;13.76;100.00;97431.84;5403765;26;20011;-79
2024/04/15 01:18:28;;;;;;;3.97;1.17;;;;;;;13.70;100.00;97419.63;5412439;26;20007;-79
2024/04/15 01:20:58;;;;;;;5.80;1.30;;;;;;;13.66;100.00;97427.66;5409372;26;20051;-81
2024/04/15 01:23:38;;;;;;;4.80;1.20;;;;;;;13.60;100.00;97401.03;5407015;26;20026;-77
2024/04/15 01:26:06;;;;;;;4.70;1.45;;;;;;;13.66;100.00;97386.06;5405939;26;19999;-79
2024/04/15 01:28:33;;;;;;;4.03;1.10;;;;;;;13.22;100.00;97389.66;5402045;26;20026;-79
2024/04/15 01:31:00;;;;;;;2.85;1.08;;;;;;;13.30;100.00;97405.88;5385103;26;20110;-80
2024/04/15 01:33:27;;;;;;;3.95;1.52;;;;;;;13.26;100.00;97393.28;5398916;26;20039;-78
2024/04/15 01:35:58;;;;;;;5.40;1.20;;;;;;;13.12;100.00;97401.75;5406354;26;20018;-79
2024/04/15 01:38:25;;;;;;;3.85;1.35;;;;;;;12.84;100.00;97396.13;5408857;26;20059;-81
2024/04/15 01:40:52;;;;;;;6.10;1.65;;;;;;;12.94;100.00;97386.75;5395185;26;20014;-79
2024/04/15 01:43:19;;;;;;;7.43;1.33;;;;;;;12.94;100.00;97386.75;5399549;26;20007;-81
2024/04/15 01:45:47;;;;;;;2.50;1.17;;;;;;;12.90;100.00;97388.56;5396996;26;20007;-79
2024/04/15 01:48:14;;;;;;;6.95;1.45;;;;;;;12.80;100.00;97400.59;5442180;26;20003;-79
2024/04/15 01:50:41;;;;;;;4.82;1.75;;;;;;;12.86;100.00;97382.19;5414509;26;20003;-79
2024/04/15 01:53:11;;;;;;;7.63;1.60;;;;;;;12.78;100.00;97370.28;5413749;26;20003;-81
2024/04/15 01:55:39;;;;;;;10.38;1.85;;;;;;;12.79;100.00;97393.59;5399340;26;20000;-80
2024/04/15 01:58:06;;;;;;;6.72;1.80;;;;;;;12.68;100.00;97386.19;5410710;26;20023;-79
2024/04/15 02:00:33;;;;;;;10.70;1.98;;;;;;;12.57;100.00;97409.47;5406412;26;20008;-80
2024/04/15 02:03:01;;;;;;;7.63;2.45;;;;;;;12.36;100.00;97418.41;5399343;26;20000;-80
2024/04/15 02:05:28;;;;;;;5.38;1.75;;;;;;;12.02;100.00;97428.72;5413401;26;20007;-81
2024/04/15 02:07:57;;;;;;;6.70;1.40;;;;;;;12.05;100.00;97437.00;5399202;26;20015;-81
2024/04/15 02:10:24;;;;;;;6.93;1.50;;;;;;;11.95;100.00;97426.53;5411158;26;20072;-79
2024/04/15 02:12:51;;;;;;;6.03;1.30;;;;;;;11.73;100.00;97449.31;5399361;26;20003;-80
2024/04/15 02:15:19;;;;;;;6.50;1.50;;;;;;;11.40;100.00;97447.50;5405729;26;20022;-79
2024/04/15 02:17:49;;;;;;;2.90;1.15;;;;;;;11.48;100.00;97452.09;5412472;26;20003;-79
2024/04/15 02:20:16;;;;;;;5.15;1.55;;;;;;;11.32;100.00;97437.47;5406069;26;20055;-79
2024/04/15 02:22:43;;;;;;;4.55;1.23;;;;;;;11.37;100.00;97431.88;5413283;26;20021;-80
2024/04/15 02:25:11;;;;;;;7.18;1.70;;;;;;;11.27;100.00;97428.44;5412717;26;20004;-81
2024/04/15 02:27:38;;;;;;;4.45;1.40;;;;;;;11.18;100.00;97437.69;5403841;26;20112;-79
2024/04/15 02:30:07;;;;;;;5.03;1.30;;;;;;;11.11;100.00;97413.81;5394753;26;20019;-80
2024/04/15 02:32:34;;;;;;;4.40;1.20;;;;;;;10.96;100.00;97406.19;5410337;26;20015;-80
2024/04/15 02:35:02;;;;;;;4.60;1.20;;;;;;;10.77;100.00;97438.25;5399288;26;20438;-81
2024/04/15 02:37:29;;;;;;;3.33;1.33;;;;;;;10.70;100.00;97453.38;5411908;26;20065;-80
2024/04/15 02:39:56;;;;;;;4.55;1.10;;;;;;;10.82;100.00;97443.50;5412029;26;20012;-78
2024/04/15 02:42:23;;;;;;;8.35;1.65;;;;;;;10.81;100.00;97457.38;5389835;26;20443;-78
2024/04/15 02:44:50;;;;;;;7.43;1.42;;;;;;;10.59;100.00;97469.94;5411928;26;20003;-78
2024/04/15 02:47:17;;;;;;;6.57;1.40;;;;;;;10.59;100.00;97482.69;5414570;26;20004;-81
2024/04/15 02:49:44;;;;;;;4.28;1.38;;;;;;;10.68;100.00;97475.38;5409468;26;20018;-80
2024/04/15 02:52:11;;;;;;;4.15;1.40;;;;;;;10.74;100.00;97465.16;5394814;26;20509;-80
2024/04/15 02:54:38;;;;;;;5.93;1.50;;;;;;;10.57;100.00;97483.00;5411859;26;20003;-80
2024/04/15 02:57:05;;;;;;;4.68;1.40;;;;;;;10.50;100.00;97444.78;5413590;26;20053;-80
2024/04/15 02:59:32;;;;;;;6.50;1.67;;;;;;;10.63;100.00;97475.53;5415994;26;20009;-79
2024/04/15 03:02:00;;;;;;;11.30;1.75;;;;;;;10.62;100.00;97490.97;5402636;26;19999;-80
2024/04/15 03:04:30;;;;;;;6.68;1.40;;;;;;;10.69;100.00;97463.41;5410698;26;20016;-80
2024/04/15 03:06:58;;;;;;;5.38;1.20;;;;;;;10.51;100.00;97454.50;5413313;26;20027;-80
2024/04/15 03:09:25;;;;;;;3.92;0.98;;;;;;;10.53;100.00;97465.00;5382229;26;20015;-79
2024/04/15 03:11:52;;;;;;;10.60;1.13;;;;;;;10.55;100.00;97468.22;5408065;26;20023;-79
2024/04/15 03:14:19;;;;;;;4.38;1.30;;;;;;;10.47;100.00;97477.13;5402349;26;20004;-79
2024/04/15 03:16:46;;;;;;;5.60;1.10;;;;;;;10.38;100.00;97460.06;5414227;26;20079;-80
2024/04/15 03:19:15;;;;;;;2.53;1.00;;;;;;;10.42;100.00;97459.13;5400013;26;20577;-80
2024/04/15 03:21:43;;;;;;;5.70;1.42;;;;;;;10.32;100.00;97470.28;5412321;26;20412;-80
2024/04/15 03:24:10;;;;;;;4.50;1.27;;;;;;;10.35;100.00;97452.59;5387433;26;19999;-79
2024/04/15 03:26:37;;;;;;;5.70;1.20;;;;;;;10.37;100.00;97453.06;5407353;26;20008;-80
2024/04/15 03:29:04;;;;;;;4.30;0.93;;;;;;;10.47;100.00;97467.09;5400953;26;20023;-80
2024/04/15 03:31:31;;;;;;;2.92;1.15;;;;;;;10.15;100.00;97448.59;5412642;26;20007;-80
2024/04/15 03:33:58;;;;;;;6.03;1.63;;;;;;;10.28;100.00;97444.94;5408179;26;20003;-79
2024/04/15 03:36:25;;;;;;;3.20;0.93;;;;;;;10.40;100.00;97445.09;5443943;26;20035;-79
2024/04/15 03:38:52;;;;;;;2.60;1.17;;;;;;;10.51;100.00;97429.34;5398934;26;20014;-79
2024/04/15 03:41:19;;;;;;;6.60;1.50;;;;;;;10.35;100.00;97388.44;5416493;26;20007;-78
2024/04/15 03:43:47;;;;;;;7.53;1.30;;;;;;;10.53;100.00;97422.50;5440878;26;20019;-79
2024/04/15 03:46:14;;;;;;;7.78;1.20;;;;;;;10.39;100.00;97423.78;5412669;26;20000;-79
2024/04/15 03:48:41;;;;;;;8.32;1.60;;;;;;;10.49;100.00;97418.84;5417172;26;20030;-78
2024/04/15 03:51:08;;;;;;;6.43;1.23;;;;;;;10.50;100.00;97430.47;5407439;26;20014;-79
2024/04/15 03:53:35;;;;;;;3.92;1.60;;;;;;;10.62;100.00;97436.03;5413882;26;20696;-80
2024/04/15 03:56:02;;;;;;;9.15;1.33;;;;;;;10.59;100.00;97423.13;5412862;26;20028;-79
2024/04/15 03:58:29;;;;;;;5.13;1.17;;;;;;;10.41;100.00;97433.19;5415715;26;19999;-79
2024/04/15 04:01:00;;;;;;;5.97;1.27;;;;;;;10.43;100.00;97435.53;5412444;26;20034;-79
2024/04/15 04:03:27;;;;;;;5.40;1.33;;;;;;;10.29;100.00;97426.81;5397801;26;20014;-80
2024/04/15 04:05:55;;;;;;;6.78;1.13;;;;;;;10.33;100.00;97433.97;5408179;26;20023;-78
2024/04/15 04:08:39;;;;;;;6.65;1.33;;;;;;;10.28;100.00;97433.31;5416323;26;20084;-79
2024/04/15 04:11:06;;;;;;;6.45;1.40;;;;;;;10.26;100.00;97422.03;5413190;26;20043;-77
2024/04/15 04:13:37;;;;;;;8.50;1.52;;;;;;;10.24;100.00;97424.25;5401231;26;20060;-77
2024/04/15 04:16:04;;;;;;;7.93;1.33;;;;;;;10.06;100.00;97414.50;5414732;26;20004;-78
2024/04/15 04:18:32;;;;;;;4.03;1.58;;;;;;;10.19;100.00;97425.22;5407011;26;20468;-81
2024/04/15 04:20:59;;;;;;;7.10;1.80;;;;;;;10.03;100.00;97419.44;5391229;26;20008;-79
2024/04/15 04:23:26;;;;;;;7.05;1.90;;;;;;;10.14;100.00;97424.56;5389191;26;20081;-78
2024/04/15 04:25:53;;;;;;;4.75;1.55;;;;;;;10.08;100.00;97413.06;5393545;26;20019;-78
2024/04/15 04:28:20;;;;;;;4.47;1.50;;;;;;;10.27;100.00;97408.16;5407738;26;20358;-78
2024/04/15 04:30:47;;;;;;;7.20;1.40;;;;;;;10.09;100.00;97416.59;5414798;26;20015;-79
2024/04/15 04:33:14;;;;;;;4.85;1.88;;;;;;;10.15;100.00;97418.03;5397695;26;19999;-79
2024/04/15 04:35:41;;;;;;;8.27;1.83;;;;;;;10.19;100.00;97413.59;5400326;26;20020;-78
2024/04/15 04:38:08;;;;;;;8.27;1.50;;;;;;;10.18;100.00;97414.69;5385491;26;20012;-79
2024/04/15 04:40:36;;;;;;;6.05;1.35;;;;;;;10.32;100.00;97418.06;5395552;26;20016;-79
2024/04/15 04:43:03;;;;;;;5.45;1.33;;;;;;;10.37;100.00;97410.59;5394451;26;20000;-78
2024/04/15 04:45:32;;;;;;;3.55;1.23;;;;;;;10.19;100.00;97405.47;5405458;26;20022;-79
2024/04/15 04:47:59;;;;;;;4.18;1.40;;;;;;;10.29;100.00;97395.16;5401620;26;20440;-79
2024/04/15 04:50:27;;;;;;;5.57;1.70;;;;;;;10.28;100.00;97388.13;5400428;26;20008;-80
2024/04/15 04:52:54;;;;;;;6.82;1.60;;;;;;;10.07;100.00;97386.34;5416548;26;20168;-79
2024/04/15 04:55:22;;;;;;;6.85;1.73;;;;;;;9.86;100.00;97384.25;5412048;26;20016;-77
2024/04/15 04:57:50;;;;;;;3.00;1.52;;;;;;;10.12;100.00;97383.50;5392599;26;20429;-78
2024/04/15 05:00:18;;;;;;;4.25;1.48;;;;;;;10.25;100.00;97374.44;5396666;26;20018;-77
2024/04/15 05:02:46;;;;;;;4.88;1.50;;;;;;;10.26;100.00;97371.44;5395729;26;20019;-79
2024/04/15 05:05:13;;;;;;;4.57;1.67;;;;;;;10.22;100.00;97375.09;5400756;26;21767;-80
2024/04/15 05:07:40;;;;;;;4.97;1.48;;;;;;;10.21;100.00;97352.66;5391706;26;20018;-79
2024/04/15 05:10:07;;;;;;;6.93;1.52;;;;;;;10.93;100.00;97368.13;5376522;26;20012;-80
2024/04/15 05:12:34;;;;;;;6.28;1.92;;;;;;;11.18;100.00;97362.63;5386989;26;20499;-78
2024/04/15 05:15:03;;;;;;;7.78;1.90;;;;;;;10.89;100.00;97369.91;5384847;26;20011;-80
2024/04/15 05:17:30;;;;;;;9.48;1.98;;;;;;;10.77;100.00;97378.69;5408376;26;20010;-79
2024/04/15 05:19:57;;;;;;;5.85;1.55;;;;;;;10.47;100.00;97377.78;5398259;26;20000;-76
2024/04/15 05:22:24;;;;;;;8.25;2.03;;;;;;;10.33;100.00;97382.56;5401346;26;20479;-79
2024/04/15 05:24:51;;;;;;;8.60;1.45;;;;;;;10.50;100.00;97385.25;5396561;26;20008;-79
2024/04/15 05:27:18;;;;;;;4.13;1.40;;;;;;;10.32;100.00;97377.47;5390255;26;19996;-78
2024/04/15 05:29:45;;;;;;;4.68;1.25;;;;;;;10.24;100.00;97364.75;5378925;26;19996;-79
2024/04/15 05:32:12;;;;;;;6.45;1.67;;;;;;;9.84;100.00;97366.75;5408664;26;20015;-78
2024/04/15 05:34:40;;;;;;;4.90;1.33;;;;;;;10.02;100.00;97358.34;5410529;26;20011;-79
2024/04/15 05:37:07;;;;;;;8.10;1.58;;;;;;;9.97;100.00;97368.50;5407316;26;20499;-78
2024/04/15 05:39:34;;;;;;;7.32;1.40;;;;;;;9.94;100.00;97355.63;5411575;26;20006;-79
2024/04/15 05:42:00;;;;;;;3.90;1.58;;;;;;;9.85;100.00;97360.25;5405575;26;20024;-79
2024/04/15 05:44:27;;;;;;;6.65;1.65;;;;;;;10.01;100.00;97372.97;5413721;26;19999;-79
2024/04/15 05:46:54;;;;;;;6.65;1.58;;;;;;;9.99;100.00;97383.31;5400128;26;20012;-80
2024/04/15 05:49:21;;;;;;;4.55;1.58;;;;;;;10.12;100.00;97387.00;5412496;26;20018;-79
2024/04/15 05:51:48;;;;;;;7.55;1.50;;;;;;;9.85;100.00;97358.34;5416113;26;19996;-79
2024/04/15 05:54:15;;;;;;;4.63;1.60;;;;;;;10.03;100.00;97351.03;5396894;26;20063;-79
2024/04/15 05:56:42;;;;;;;4.97;1.50;;;;;;;10.15;100.00;97339.59;5378452;26;19999;-78
2024/04/15 05:59:09;;;;;;;5.57;1.65;;;;;;;10.16;100.00;97366.34;5408276;26;20022;-79
2024/04/15 06:01:36;;;;;;;5.82;1.80;;;;;;;9.98;100.00;97354.69;5403965;26;20007;-79
2024/04/15 06:04:05;;;;;;;3.80;1.88;;;;;;;10.14;100.00;97343.44;5393639;26;20360;-80
2024/04/15 06:06:32;;;;;;;7.53;1.80;;;;;;;10.29;100.00;97338.31;5414933;26;20460;-80
2024/04/15 06:08:59;;;;;;;6.10;1.58;;;;;;;10.23;100.00;97322.56;5378958;26;19996;-78
2024/04/15 06:11:26;;;;;;;3.80;1.80;;;;;;;10.19;100.00;97327.84;5390323;26;20051;-79
2024/04/15 06:13:53;;;;;;;6.60;1.95;;;;;;;9.98;100.00;97329.56;5406059;26;20003;-79
2024/04/15 06:16:20;;;;;;;7.07;1.77;;;;;;;9.94;100.00;97310.47;5398808;26;20008;-80
2024/04/15 06:18:47;;;;;;;9.65;2.45;;;;;;;9.92;100.00;97290.25;5403450;26;20474;-79
2024/04/15 06:21:15;;;;;;;5.63;1.77;;;;;;;9.77;100.00;97294.25;5390745;26;20042;-79
2024/04/15 06:23:43;;;;;;;5.22;1.90;;;;;;;9.89;100.00;97301.69;5408523;26;20627;-79
2024/04/15 06:26:10;;;;;;;5.05;1.80;;;;;;;9.88;100.00;97300.13;5411004;26;20000;-78
2024/04/15 06:28:37;;;;;;;6.55;1.83;;;;;;;9.79;100.00;97308.22;5412587;26;20007;-80
2024/04/15 06:31:04;;;;;;;5.60;1.88;;;;;;;10.02;100.00;97304.25;5409806;26;20007;-77
2024/04/15 06:33:31;;;;;;;5.43;1.90;;;;;;;9.99;100.00;97301.38;5408841;26;20073;-79
2024/04/15 06:35:58;;;;;;;15.85;2.08;;;;;;;10.12;100.00;97302.34;5399213;26;20042;-78
2024/04/15 06:38:25;;;;;;;10.60;2.20;;;;;;;10.20;100.00;97304.25;5410532;26;20031;-78
2024/04/15 06:40:52;;;;;;;4.70;1.73;;;;;;;10.34;100.00;97291.38;5410738;26;20018;-79
2024/04/15 06:43:20;;;;;;;7.10;2.28;;;;;;;10.37;100.00;97293.44;5395907;26;20084;-79
2024/04/15 06:45:47;;;;;;;7.50;1.70;;;;;;;10.40;100.00;97293.56;5384108;26;20028;-78
2024/04/15 06:48:16;;;;;;;9.93;2.00;;;;;;;10.52;100.00;97285.59;5398873;26;20462;-79
2024/04/15 06:50:44;;;;;;;9.20;4.40;;;;;;;10.57;100.00;97274.59;5389855;26;20101;-80
2024/04/15 06:53:11;;;;;;;4.97;1.77;;;;;;;10.60;100.00;97273.97;5408409;26;20019;-80
2024/04/15 06:55:38;;;;;;;6.28;1.85;;;;;;;10.66;100.00;97290.78;5401017;26;20008;-80
2024/04/15 06:58:05;;;;;;;4.65;1.65;;;;;;;10.62;100.00;97271.72;5408868;26;20444;-78
2024/04/15 07:00:32;;;;;;;10.50;2.22;;;;;;;10.82;100.00;97280.22;5410796;26;20040;-78
2024/04/15 07:03:00;;;;;;;6.75;1.90;;;;;;;10.91;100.00;97287.22;5408016;26;20004;-78
2024/04/15 07:05:27;;;;;;;5.13;2.00;;;;;;;10.97;100.00;97277.00;5392206;26;20019;-79
2024/04/15 07:07:53;;;;;;;5.38;2.08;;;;;;;10.79;100.00;97260.00;5383730;26;20519;-79
2024/04/15 07:10:24;;;;;;;7.40;2.35;;;;;;;10.66;100.00;97268.38;5433437;26;20008;-79
2024/04/15 07:12:51;;;;;;;5.82;1.90;;;;;;;10.75;100.00;97255.56;5406614;26;20452;-78
2024/04/15 07:15:19;;;;;;;5.80;2.10;;;;;;;10.88;100.00;97255.38;5413202;26;20031;-79
2024/04/15 07:17:46;;;;;;;9.32;2.03;;;;;;;11.24;100.00;97252.94;5399531;26;19995;-78
2024/04/15 07:20:14;;;;;;;9.07;1.90;;;;;;;11.51;100.00;97245.44;5408446;26;19999;-79
2024/04/15 07:22:41;;;;;;;7.15;2.28;;;;;;;11.38;100.00;97246.47;5430320;26;20488;-79
2024/04/15 07:25:07;;;;;;;7.35;2.08;;;;;;;11.55;100.00;97243.66;5413514;26;20503;-78
2024/04/15 07:27:38;;;;;;;8.55;1.92;;;;;;;11.50;100.00;97251.97;5418266;26;20432;-78
2024/04/15 07:30:07;;;;;;;4.60;1.95;;;;;;;11.53;100.00;97246.69;5402111;26;20579;-78
2024/04/15 07:32:38;;;;;;;4.90;1.95;;;;;;;11.97;100.00;97242.53;5407995;26;20454;-79
2024/04/15 07:35:05;;;;;;;4.45;1.83;;;;;;;12.10;100.00;97238.75;5380854;26;20513;-81
2024/04/15 07:37:32;;;;;;;6.22;1.80;;;;;;;12.10;100.00;97244.19;5415546;26;20456;-80
2024/04/15 07:40:00;;;;;;;3.85;2.00;;;;;;;12.37;100.00;97238.13;5388418;26;20004;-79
2024/04/15 07:42:32;;;;;;;9.73;1.85;;;;;;;12.30;100.00;97231.66;5400919;26;20003;-80
2024/04/15 07:45:10;;;;;;;6.13;1.52;;;;;;;12.42;100.00;97232.50;5389820;26;20012;-80
2024/04/15 07:47:37;;;;;;;3.78;1.50;;;;;;;12.64;100.00;97222.34;5405781;26;20000;-79
2024/04/15 07:50:05;;;;;;;5.00;1.73;;;;;;;12.48;100.00;97239.31;5397928;26;20339;-80
2024/04/15 07:52:32;;;;;;;5.95;1.60;;;;;;;12.37;100.00;97216.41;5362977;26;20011;-81
2024/04/15 07:54:58;;;;;;;7.20;1.60;;;;;;;12.64;100.00;97214.19;5391586;26;20012;-79
2024/04/15 07:57:28;;;;;;;5.97;1.50;;;;;;;12.74;100.00;97216.47;5399422;26;20057;-80
2024/04/15 07:59:56;;;;;;;6.82;1.35;;;;;;;12.96;100.00;97202.44;5401876;26;20073;-79
2024/04/15 08:02:23;;;;;;;7.38;1.80;;;;;;;12.92;100.00;97205.06;5416443;26;20014;-78
2024/04/15 08:04:50;;;;;;;3.50;1.50;;;;;;;13.15;100.00;97207.31;5413457;26;20000;-78
2024/04/15 08:07:17;;;;;;;5.47;1.88;;;;;;;13.33;100.00;97205.94;5415201;26;20008;-78
2024/04/15 08:09:44;;;;;;;5.18;1.63;;;;;;;13.51;100.00;97194.47;5412635;26;20008;-81
2024/04/15 08:12:11;;;;;;;5.28;1.80;;;;;;;13.83;100.00;97195.38;5399908;26;20472;-81
2024/04/15 08:14:39;;;;;;;6.25;1.48;;;;;;;14.16;100.00;97195.09;5413056;26;20024;-80
2024/04/15 08:17:06;;;;;;;4.40;1.70;;;;;;;14.17;100.00;97202.13;5398824;26;20019;-81
2024/04/15 08:19:36;;;;;;;4.78;1.60;;;;;;;14.23;100.00;97198.00;5408394;26;20015;-82
2024/04/15 08:22:03;;;;;;;1.90;1.20;;;;;;;14.23;100.00;97198.81;5402297;26;20005;-80
2024/04/15 08:24:30;;;;;;;5.72;1.60;;;;;;;13.92;100.00;97197.94;5413589;26;20004;-81
2024/04/15 08:26:57;;;;;;;5.53;1.38;;;;;;;14.08;100.00;97183.25;5402358;26;20008;-80
2024/04/15 08:29:25;;;;;;;5.10;1.58;;;;;;;13.95;100.00;97180.91;5396103;26;20001;-80
2024/04/15 08:31:52;;;;;;;3.67;1.70;;;;;;;14.13;100.00;97179.47;5410091;26;20040;-79
2024/04/15 08:34:22;;;;;;;4.82;1.48;;;;;;;14.45;100.00;97170.22;5400133;26;20014;-79
2024/04/15 08:36:48;;;;;;;3.53;1.25;;;;;;;14.41;100.00;97188.41;5401855;26;20000;-79
2024/04/15 08:39:15;;;;;;;4.35;1.80;;;;;;;14.46;100.00;97177.25;5409434;26;20076;-79
2024/04/15 08:41:50;;;;;;;3.13;1.42;;;;;;;14.70;100.00;97157.22;5391883;26;19996;-79
2024/04/15 08:44:32;;;;;;;4.20;1.60;;;;;;;14.80;100.00;97145.78;5401165;26;20016;-80
2024/04/15 08:47:09;;;;;;;3.35;1.63;;;;;;;15.12;100.00;97150.03;5411148;26;20053;-79
2024/04/15 08:49:39;;;;;;;5.88;1.98;;;;;;;15.21;100.00;97158.00;5402815;26;20019;-80
2024/04/15 08:52:06;;;;;;;4.90;1.92;;;;;;;15.37;100.00;97162.25;5390799;26;20746;-80
2024/04/15 08:54:34;;;;;;;7.50;2.40;;;;;;;15.40;100.00;97149.84;5404996;26;20036;-80
2024/04/15 08:57:02;;;;;;;4.55;2.10;;;;;;;15.48;100.00;97155.13;5413116;26;20004;-80
2024/04/15 08:59:30;;;;;;;4.38;2.20;;;;;;;15.66;100.00;97138.34;5402886;26;20015;-79
2024/04/15 09:01:57;;;;;;;4.97;2.40;;;;;;;15.79;100.00;97140.56;5406178;26;20019;-81
2024/04/15 09:04:24;;;;;;;3.95;1.92;;;;;;;15.30;100.00;97144.97;5383408;26;20023;-81
2024/04/15 09:06:52;;;;;;;6.95;2.10;;;;;;;14.53;100.00;97133.84;5380645;26;19992;-82
2024/04/15 09:09:19;;;;;;;5.55;2.30;;;;;;;15.04;100.00;97133.88;5397657;26;20072;-80
2024/04/15 09:11:49;;;;;;;7.90;2.10;;;;;;;15.33;100.00;97139.56;5405021;26;20453;-79
2024/04/15 09:14:21;;;;;;;6.97;2.13;;;;;;;15.28;100.00;97133.63;5392970;26;20090;-81
2024/04/15 09:16:48;;;;;;;3.72;1.75;;;;;;;14.85;100.00;97112.78;5412451;26;20015;-79
2024/04/15 09:19:15;;;;;;;5.70;1.60;;;;;;;14.62;100.00;97114.59;5401631;26;20052;-79
2024/04/15 09:21:42;;;;;;;5.03;1.50;;;;;;;14.35;100.00;97110.81;5347186;26;20008;-81
2024/04/15 09:24:10;;;;;;;3.45;1.23;;;;;;;14.32;100.00;97117.75;5408366;26;19999;-79
2024/04/15 09:26:37;;;;;;;2.78;1.50;;;;;;;14.09;100.00;97114.03;5401111;26;20007;-81
2024/04/15 09:29:09;;;;;;;2.85;1.10;;;;;;;14.73;100.00;97113.72;5412975;26;20014;-82
2024/04/15 09:31:37;;;;;;;3.35;1.60;;;;;;;14.69;100.00;97115.53;5404725;26;20020;-79
2024/04/15 09:34:06;;;;;;;3.60;1.60;;;;;;;14.71;100.00;97107.81;5397887;26;20011;-82
2024/04/15 09:36:35;;;;;;;4.13;1.55;;;;;;;14.91;100.00;97103.22;5410595;26;20043;-80
2024/04/15 09:39:03;;;;;;;3.00;1.20;;;;;;;15.55;100.00;97094.47;5408035;26;20386;-81
2024/04/15 09:41:33;;;;;;;3.20;1.48;;;;;;;15.53;100.00;97092.09;5402275;26;20008;-81
2024/04/15 09:44:00;;;;;;;7.22;1.63;;;;;;;15.62;100.00;97085.59;5395902;26;20467;-79
2024/04/15 09:46:32;;;;;;;4.82;1.40;;;;;;;15.71;100.00;97078.00;5397286;26;20007;-81
2024/04/15 09:49:03;;;;;;;4.28;1.70;;;;;;;15.06;100.00;97077.84;5400081;26;19997;-82
2024/04/15 09:51:32;;;;;;;2.28;1.23;;;;;;;14.51;100.00;97059.06;5402718;26;20022;-78
2024/04/15 09:54:01;;;;;;;4.10;1.48;;;;;;;14.37;99.94;97045.94;5412711;26;20007;-82
2024/04/15 09:56:32;;;;;;;4.70;1.73;;;;;;;14.07;100.00;97058.38;5426738;26;20024;-81
2024/04/15 09:59:01;;;;;;;4.72;1.60;;;;;;;14.73;100.00;97056.50;5383000;26;20010;-81
2024/04/15 10:01:32;;;;;;;3.65;1.63;;;;;;;14.83;100.00;97047.75;5400131;26;20447;-80
2024/04/15 10:04:15;;;;;;;8.23;1.77;;;;;;;15.06;96.12;97053.31;5398762;26;20078;-79
2024/04/15 10:06:51;;;;;;;3.17;1.73;;;;;;;15.70;100.00;97041.72;5397600;26;20069;-80
2024/04/15 10:09:19;;;;;;;6.85;1.98;;;;;;;15.63;95.77;97025.25;5394058;26;20011;-80
2024/04/15 10:11:49;;;;;;;3.60;1.77;;;;;;;15.84;88.38;97022.91;5414142;26;20018;-80
2024/04/15 10:14:18;;;;;;;6.07;1.52;;;;;;;16.46;91.53;97015.31;5413423;26;20027;-81
2024/04/15 10:16:47;;;;;;;6.70;1.75;;;;;;;16.37;81.54;97015.56;5387865;26;20019;-80
2024/04/15 10:19:32;;;;;;;4.55;1.65;;;;;;;16.37;83.24;97020.22;5410271;26;21192;-80
2024/04/15 10:22:01;;;;;;;6.28;1.95;;;;;;;16.27;82.03;97002.53;5390039;26;20046;-79
2024/04/15 10:24:30;;;;;;;4.57;2.10;;;;;;;15.92;80.56;97005.50;5412854;26;20004;-79
2024/04/15 10:26:57;;;;;;;5.80;2.10;;;;;;;15.99;84.69;96991.94;5396788;26;20004;-81
2024/04/15 10:29:26;;;;;;;6.70;2.20;;;;;;;15.75;90.26;96995.03;5413068;26;20012;-78
2024/04/15 10:31:56;;;;;;;6.88;2.03;;;;;;;15.09;87.13;96991.81;5399279;26;20023;-80
2024/04/15 10:34:25;;;;;;;5.40;2.08;;;;;;;15.00;93.05;96992.03;5413538;26;20015;-79
2024/04/15 10:36:55;;;;;;;5.75;2.40;;;;;;;15.43;90.12;96988.97;5394893;26;20304;-78
2024/04/15 10:39:25;;;;;;;3.22;1.90;;;;;;;15.06;91.93;96982.44;5399506;26;20008;-79
2024/04/15 10:41:52;;;;;;;6.82;2.45;;;;;;;15.05;93.96;96966.41;5403264;26;20018;-80
2024/04/15 10:44:20;;;;;;;4.90;1.52;;;;;;;14.90;93.29;96984.44;5406648;26;20048;-80
2024/04/15 10:46:50;;;;;;;7.72;1.98;;;;;;;15.33;87.00;96975.16;5407729;26;20579;-79
2024/04/15 10:49:17;;;;;;;6.60;1.67;;;;;;;15.16;86.68;96973.66;5404802;26;20008;-80
2024/04/15 10:51:47;;;;;;;8.52;1.80;;;;;;;15.24;88.60;96969.13;5388524;26;20077;-80
2024/04/15 10:54:15;;;;;;;4.78;1.52;;;;;;;15.31;90.03;96966.53;5395757;26;20022;-81
2024/04/15 10:56:42;;;;;;;9.10;2.20;;;;;;;15.01;89.84;96980.00;5398206;26;20037;-80
2024/04/15 10:59:16;;;;;;;8.43;1.92;;;;;;;15.05;89.59;96964.47;5410795;26;20309;-79
2024/04/15 11:01:46;;;;;;;5.70;2.03;;;;;;;14.93;88.91;96951.00;5410573;26;20000;-79
2024/04/15 11:04:13;;;;;;;3.90;1.80;;;;;;;14.99;92.05;96941.41;5409492;26;20014;-80
2024/04/15 11:06:41;;;;;;;4.85;1.90;;;;;;;15.08;94.04;96935.72;5411689;26;20004;-79
2024/04/15 11:09:09;;;;;;;3.97;1.63;;;;;;;14.91;87.39;96936.97;5407728;26;20015;-80
2024/04/15 11:11:36;;;;;;;5.05;1.83;;;;;;;15.38;88.42;96931.22;5400139;26;20008;-80
2024/04/15 11:14:09;;;;;;;4.90;1.90;;;;;;;15.63;89.44;96913.38;5396711;26;20000;-78
2024/04/15 11:16:36;;;;;;;5.85;2.10;;;;;;;15.44;89.88;96927.03;5398903;26;20509;-79
2024/04/15 11:19:06;;;;;;;7.20;1.90;;;;;;;15.27;94.56;96930.25;5408708;26;20014;-81
2024/04/15 11:21:33;;;;;;;6.93;1.50;;;;;;;15.06;90.64;96927.91;5408427;26;20057;-82
2024/04/15 11:24:01;;;;;;;3.08;1.67;;;;;;;15.15;84.43;96916.78;5394239;26;20008;-80
2024/04/15 11:26:36;;;;;;;7.22;1.73;;;;;;;15.40;85.96;96896.97;5383735;26;20017;-81
2024/04/15 11:29:06;;;;;;;5.25;1.95;;;;;;;15.87;84.96;96884.91;5418585;26;20026;-79
2024/04/15 11:31:34;;;;;;;2.70;1.42;;;;;;;15.98;80.33;96878.44;5409783;26;20052;-80